Time;durP1;ratioP1;P1;durP2;ratioP2;P2;SDS_P1;SDS_P2;PMS_P1;PMS_P2;Temp;Humidity;BMP_temperature;BMP_pressure;BME280_temperature;BME280_humidity;BME280_pressure;Samples;Min_cycle;Max_cycle;Signal;HPM_P1;HPM_P2
2024/02/24 00:01:04;;;;;;;4.05;1.63;;;;;;;4.22;89.37;98580.47;5044487;28;20052;-66
2024/02/24 00:03:29;;;;;;;0.82;0.82;;;;;;;4.24;89.35;98577.88;5044307;28;20034;-67
2024/02/24 00:05:55;;;;;;;0.70;0.70;;;;;;;4.24;89.45;98585.56;5044589;28;20025;-66
2024/02/24 00:08:20;;;;;;;0.80;0.80;;;;;;;4.27;89.68;98580.41;5044341;28;20112;-67
2024/02/24 00:10:46;;;;;;;1.92;1.23;;;;;;;4.30;89.57;98576.94;5044443;28;20018;-67
2024/02/24 00:13:12;;;;;;;0.63;0.63;;;;;;;4.26;89.52;98575.28;5043302;28;20045;-68
2024/02/24 00:15:37;;;;;;;0.68;0.68;;;;;;;4.22;89.49;98569.31;5046490;28;20052;-68
2024/02/24 00:18:04;;;;;;;0.50;0.50;;;;;;;4.27;89.31;98574.41;5048239;28;20021;-68
2024/02/24 00:20:29;;;;;;;0.60;0.60;;;;;;;4.27;89.46;98582.09;5046595;28;20021;-69
2024/02/24 00:22:54;;;;;;;0.80;0.80;;;;;;;4.27;89.25;98577.84;5047546;28;20133;-69
2024/02/24 00:25:20;;;;;;;1.70;1.60;;;;;;;4.32;89.12;98591.47;5048077;28;20021;-67
2024/02/24 00:27:45;;;;;;;1.15;1.15;;;;;;;4.36;88.79;98607.69;5046476;28;20048;-69
2024/02/24 00:30:12;;;;;;;1.50;1.40;;;;;;;4.40;88.73;98601.66;5047899;28;20029;-69
2024/02/24 00:32:37;;;;;;;0.75;0.75;;;;;;;4.43;88.90;98606.75;5046355;28;20016;-69
2024/02/24 00:35:02;;;;;;;0.82;0.82;;;;;;;4.50;88.55;98624.66;5047706;28;20022;-69
2024/02/24 00:37:28;;;;;;;5.35;0.82;;;;;;;4.46;88.37;98614.44;5047820;28;20025;-69
2024/02/24 00:39:53;;;;;;;0.88;0.85;;;;;;;4.51;88.28;98631.50;5047742;28;20089;-69
2024/02/24 00:42:18;;;;;;;1.25;1.17;;;;;;;4.54;88.41;98619.47;5046050;28;20025;-69
2024/02/24 00:44:44;;;;;;;0.73;0.73;;;;;;;4.54;88.35;98629.75;5047539;28;20025;-69
2024/02/24 00:47:09;;;;;;;2.08;0.77;;;;;;;4.49;88.41;98626.38;5047739;28;20021;-69
2024/02/24 00:49:34;;;;;;;3.28;1.42;;;;;;;4.57;88.33;98631.41;5047603;28;20085;-69
2024/02/24 00:52:00;;;;;;;2.05;0.75;;;;;;;4.57;88.48;98636.56;5047524;28;20029;-69
2024/02/24 00:54:25;;;;;;;0.73;0.73;;;;;;;4.62;88.44;98642.50;5047114;28;20017;-68
2024/02/24 00:56:50;;;;;;;1.95;1.85;;;;;;;4.57;88.29;98631.41;5047415;28;20036;-69
2024/02/24 00:59:16;;;;;;;1.17;1.08;;;;;;;4.66;88.15;98648.47;5047284;28;20453;-70
2024/02/24 01:01:41;;;;;;;1.27;0.95;;;;;;;4.66;88.31;98649.31;5047279;28;20072;-70
2024/02/24 01:04:06;;;;;;;4.15;1.58;;;;;;;4.69;88.47;98645.84;5045523;28;20032;-69
2024/02/24 01:06:32;;;;;;;1.00;0.88;;;;;;;4.70;88.22;98657.81;5047458;28;20025;-69
2024/02/24 01:08:57;;;;;;;0.75;0.70;;;;;;;4.69;88.18;98654.44;5047095;28;20079;-69
2024/02/24 01:11:22;;;;;;;1.77;0.90;;;;;;;4.74;87.92;98653.50;5047378;28;20025;-69
2024/02/24 01:13:48;;;;;;;0.70;0.70;;;;;;;4.64;88.29;98640.78;5047203;28;20021;-70
2024/02/24 01:16:13;;;;;;;0.60;0.60;;;;;;;4.62;88.60;98641.66;5047251;28;20032;-69
2024/02/24 01:18:39;;;;;;;0.60;0.60;;;;;;;4.65;88.35;98637.31;5046992;28;20025;-68
2024/02/24 01:21:04;;;;;;;2.95;1.33;;;;;;;4.57;88.48;98637.41;5047025;28;20029;-68
2024/02/24 01:23:30;;;;;;;9.18;1.13;;;;;;;4.66;88.41;98639.03;5046372;28;20025;-70
2024/02/24 01:25:55;;;;;;;1.38;1.27;;;;;;;4.71;88.77;98644.13;5044623;28;20116;-69
2024/02/24 01:28:21;;;;;;;10.18;2.38;;;;;;;4.73;88.73;98644.09;5047036;28;20029;-69
2024/02/24 01:30:46;;;;;;;1.02;0.98;;;;;;;4.67;88.54;98640.72;5047024;28;20052;-69
2024/02/24 01:33:11;;;;;;;0.98;0.88;;;;;;;4.69;88.59;98659.56;5046730;28;20022;-69
2024/02/24 01:35:37;;;;;;;4.00;1.13;;;;;;;4.67;88.38;98645.88;5046752;28;20031;-69
2024/02/24 01:38:03;;;;;;;1.33;1.00;;;;;;;4.69;88.25;98649.28;5046355;28;20077;-69
2024/02/24 01:40:29;;;;;;;0.70;0.70;;;;;;;4.67;88.02;98658.72;5046861;28;20089;-69
2024/02/24 01:42:54;;;;;;;1.55;1.08;;;;;;;4.63;87.97;98653.66;5046505;28;20082;-69
2024/02/24 01:45:20;;;;;;;0.70;0.70;;;;;;;4.64;87.59;98651.06;5046172;28;20026;-69
2024/02/24 01:47:45;;;;;;;0.55;0.55;;;;;;;4.61;88.11;98669.09;5046507;28;20077;-69
2024/02/24 01:50:11;;;;;;;0.57;0.57;;;;;;;4.54;87.98;98662.31;5046412;28;20089;-70
2024/02/24 01:52:39;;;;;;;0.75;0.75;;;;;;;4.53;88.18;98670.88;5046116;28;20107;-70
2024/02/24 01:55:05;;;;;;;0.90;0.90;;;;;;;4.60;87.77;98669.94;5045845;28;20068;-69
2024/02/24 01:57:35;;;;;;;4.82;1.52;;;;;;;4.59;87.53;98663.09;5046144;28;20033;-68
2024/02/24 02:00:02;;;;;;;2.47;1.92;;;;;;;4.46;88.04;98663.25;5046227;28;20033;-69
2024/02/24 02:02:27;;;;;;;0.82;0.82;;;;;;;4.54;87.71;98677.72;5046052;28;20048;-69
2024/02/24 02:04:53;;;;;;;4.57;2.10;;;;;;;4.32;87.66;98655.72;5046059;28;20021;-69
2024/02/24 02:07:18;;;;;;;2.45;1.10;;;;;;;4.39;88.27;98677.06;5044474;28;20063;-69
2024/02/24 02:09:57;;;;;;;1.25;1.02;;;;;;;4.38;88.33;98675.34;5045504;28;20028;-68
2024/02/24 02:12:24;;;;;;;1.65;0.93;;;;;;;4.37;88.32;98667.63;5046009;28;20075;-68
2024/02/24 02:14:50;;;;;;;2.15;1.65;;;;;;;4.35;88.26;98680.50;5045874;28;20026;-68
2024/02/24 02:17:15;;;;;;;0.77;0.77;;;;;;;4.32;88.04;98672.84;5045747;28;20021;-69
2024/02/24 02:19:40;;;;;;;2.05;1.15;;;;;;;4.24;88.10;98675.47;5045345;28;20390;-69
2024/02/24 02:22:11;;;;;;;1.73;0.95;;;;;;;4.21;88.31;98673.81;5045766;28;20041;-68
2024/02/24 02:24:37;;;;;;;15.93;1.25;;;;;;;4.24;88.31;98684.91;5045124;28;20410;-68
2024/02/24 02:27:06;;;;;;;0.85;0.85;;;;;;;4.21;88.41;98691.78;5045781;28;20056;-70
2024/02/24 02:29:32;;;;;;;16.77;1.23;;;;;;;4.17;88.74;98687.53;5045520;28;20025;-70
2024/02/24 02:31:57;;;;;;;11.88;2.15;;;;;;;4.19;88.46;98696.09;5045642;28;20106;-69
2024/02/24 02:34:23;;;;;;;2.10;1.20;;;;;;;4.20;88.46;98691.81;5043717;28;20033;-70
2024/02/24 02:36:48;;;;;;;3.78;1.85;;;;;;;4.14;88.62;98692.72;5045564;28;20029;-69
2024/02/24 02:39:14;;;;;;;6.72;1.25;;;;;;;4.09;88.69;98695.31;5045360;28;20094;-69
2024/02/24 02:41:39;;;;;;;0.63;0.63;;;;;;;4.10;89.10;98701.31;5045300;28;20093;-69
2024/02/24 02:44:04;;;;;;;1.65;1.10;;;;;;;4.05;89.06;98692.78;5045208;28;20036;-69
2024/02/24 02:46:30;;;;;;;1.30;0.68;;;;;;;4.10;89.27;98711.59;5045329;28;20385;-69
2024/02/24 02:48:55;;;;;;;5.47;1.10;;;;;;;4.13;89.33;98706.44;5045220;28;20033;-69
2024/02/24 02:51:20;;;;;;;5.20;1.33;;;;;;;4.18;89.33;98712.38;5045165;28;20029;-69
2024/02/24 02:53:46;;;;;;;1.40;1.17;;;;;;;4.20;89.49;98710.63;5043212;28;20064;-69
2024/02/24 02:56:16;;;;;;;5.10;1.45;;;;;;;4.24;89.60;98713.16;5044998;28;20060;-68
2024/02/24 02:58:42;;;;;;;7.88;1.90;;;;;;;4.22;89.69;98706.34;5043494;28;20404;-69
2024/02/24 03:01:10;;;;;;;0.80;0.80;;;;;;;4.30;89.69;98725.94;5043608;28;20040;-68
2024/02/24 03:03:36;;;;;;;2.50;1.13;;;;;;;4.25;89.98;98715.72;5043703;28;20025;-68
2024/02/24 03:06:01;;;;;;;1.90;1.48;;;;;;;4.38;89.91;98731.03;5045009;28;20036;-69
2024/02/24 03:08:26;;;;;;;0.60;0.60;;;;;;;4.37;89.72;98719.03;5044960;28;20104;-68
2024/02/24 03:10:52;;;;;;;0.75;0.75;;;;;;;4.49;90.00;98742.03;5044900;28;20025;-68
2024/02/24 03:13:17;;;;;;;0.70;0.70;;;;;;;4.55;89.29;98738.56;5043489;28;20018;-68
2024/02/24 03:15:42;;;;;;;1.95;1.52;;;;;;;4.52;89.19;98743.72;5043400;28;20045;-68
2024/02/24 03:18:08;;;;;;;1.38;1.27;;;;;;;4.50;89.86;98748.03;5044911;28;20021;-69
2024/02/24 03:20:33;;;;;;;4.32;1.45;;;;;;;4.51;89.46;98744.56;5043311;28;20021;-69
2024/02/24 03:22:59;;;;;;;3.10;1.95;;;;;;;4.56;89.35;98750.53;5044901;28;20060;-68
2024/02/24 03:25:24;;;;;;;12.05;1.45;;;;;;;4.51;89.38;98744.56;5044742;28;20022;-68
2024/02/24 03:27:49;;;;;;;0.70;0.70;;;;;;;4.53;89.71;98753.13;5045210;28;20040;-68
2024/02/24 03:30:15;;;;;;;21.13;1.33;;;;;;;4.45;89.86;98748.06;5043470;28;20111;-68
2024/02/24 03:32:40;;;;;;;0.50;0.50;;;;;;;4.51;89.56;98762.56;5044866;28;20493;-67
2024/02/24 03:35:07;;;;;;;1.02;1.02;;;;;;;4.47;89.61;98760.03;5044611;28;20462;-68
2024/02/24 03:37:33;;;;;;;1.85;1.67;;;;;;;4.51;90.01;98755.72;5043386;28;20021;-68
2024/02/24 03:39:58;;;;;;;2.40;1.42;;;;;;;4.54;89.89;98765.09;5045082;28;20024;-68
2024/02/24 03:42:23;;;;;;;4.03;0.93;;;;;;;4.52;89.76;98756.59;5045509;28;20100;-69
2024/02/24 03:44:49;;;;;;;1.25;1.15;;;;;;;4.54;89.64;98767.69;5043565;28;20030;-68
2024/02/24 03:47:14;;;;;;;1.05;1.02;;;;;;;4.52;89.79;98761.72;5043715;28;20063;-68
2024/02/24 03:49:41;;;;;;;3.97;1.27;;;;;;;4.52;89.83;98759.16;5048939;28;20024;-68
2024/02/24 03:52:07;;;;;;;1.63;1.52;;;;;;;4.60;90.16;98767.59;5049138;28;20107;-68
2024/02/24 03:54:32;;;;;;;0.60;0.60;;;;;;;4.58;89.57;98766.78;5048329;28;20029;-69
2024/02/24 03:56:57;;;;;;;1.27;1.15;;;;;;;4.55;89.78;98765.09;5048657;28;20025;-68
2024/02/24 03:59:23;;;;;;;0.85;0.82;;;;;;;4.63;89.66;98772.75;5046863;28;20021;-69
2024/02/24 04:01:48;;;;;;;1.45;1.00;;;;;;;4.63;89.57;98769.31;5048654;28;20110;-69
2024/02/24 04:04:13;;;;;;;1.83;1.73;;;;;;;4.66;89.59;98772.72;5048287;28;20029;-69
2024/02/24 04:06:42;;;;;;;1.75;1.38;;;;;;;4.66;89.48;98775.28;5048781;28;20474;-68
2024/02/24 04:09:08;;;;;;;2.45;1.42;;;;;;;4.66;89.41;98783.00;5048164;28;20026;-68
2024/02/24 04:11:35;;;;;;;2.35;1.48;;;;;;;4.68;89.33;98783.81;5048286;28;20053;-68
2024/02/24 04:14:00;;;;;;;3.72;1.20;;;;;;;4.74;89.46;98787.19;5048393;28;20018;-68
2024/02/24 04:16:26;;;;;;;0.65;0.65;;;;;;;4.68;89.30;98780.41;5048110;28;20049;-68
2024/02/24 04:18:51;;;;;;;1.58;1.48;;;;;;;4.69;88.99;98782.09;5046696;28;20021;-69
2024/02/24 04:21:19;;;;;;;4.38;2.30;;;;;;;4.71;89.19;98782.94;5046591;28;20116;-69
2024/02/24 04:23:44;;;;;;;1.80;1.67;;;;;;;4.74;88.78;98780.34;5046284;28;20028;-68
2024/02/24 04:26:10;;;;;;;1.08;1.02;;;;;;;4.73;88.99;98791.47;5047902;28;20448;-69
2024/02/24 04:28:35;;;;;;;1.20;1.10;;;;;;;4.77;88.94;98792.31;5046533;28;20021;-69
2024/02/24 04:31:00;;;;;;;1.25;0.85;;;;;;;4.73;88.65;98783.75;5047666;28;20080;-69
2024/02/24 04:33:26;;;;;;;1.60;1.08;;;;;;;4.77;88.83;98790.59;5047812;28;20025;-69
2024/02/24 04:35:51;;;;;;;0.70;0.70;;;;;;;4.81;88.43;98796.53;5047671;28;20033;-68
2024/02/24 04:38:16;;;;;;;1.27;1.17;;;;;;;4.80;88.18;98793.13;5046107;28;20029;-69
2024/02/24 04:40:42;;;;;;;0.73;0.73;;;;;;;4.84;87.92;98810.22;5047835;28;20044;-68
2024/02/24 04:43:07;;;;;;;2.08;1.50;;;;;;;4.80;88.04;98805.97;5047480;28;20030;-68
2024/02/24 04:45:33;;;;;;;0.88;0.88;;;;;;;4.84;87.94;98809.34;5047542;28;20031;-69
2024/02/24 04:47:58;;;;;;;2.88;1.52;;;;;;;4.83;88.38;98810.22;5047608;28;20025;-68
2024/02/24 04:50:23;;;;;;;1.92;1.73;;;;;;;4.86;88.51;98817.06;5047411;28;20028;-68
2024/02/24 04:52:49;;;;;;;1.48;1.35;;;;;;;4.81;88.34;98812.81;5047358;28;20025;-68
2024/02/24 04:55:14;;;;;;;9.55;1.65;;;;;;;4.80;88.36;98817.97;5045532;28;20088;-68
2024/02/24 04:57:40;;;;;;;3.00;1.58;;;;;;;4.78;88.03;98818.00;5045989;28;20032;-68
2024/02/24 05:00:06;;;;;;;2.83;2.08;;;;;;;4.74;88.19;98810.34;5045779;28;20021;-69
2024/02/24 05:02:31;;;;;;;1.70;1.55;;;;;;;4.70;88.20;98812.94;5046820;28;20059;-68
2024/02/24 05:04:56;;;;;;;3.58;1.80;;;;;;;4.71;88.41;98806.91;5029286;28;20093;-68
2024/02/24 05:07:23;;;;;;;1.38;1.27;;;;;;;4.72;88.22;98818.06;5047106;28;20022;-69
2024/02/24 05:09:48;;;;;;;2.03;1.27;;;;;;;4.66;88.56;98813.84;5047051;28;20029;-69
2024/02/24 05:12:13;;;;;;;1.67;1.27;;;;;;;4.71;88.34;98822.34;5047144;28;20032;-69
2024/02/24 05:14:39;;;;;;;1.50;1.35;;;;;;;4.68;88.35;98821.53;5047037;28;20060;-69
2024/02/24 05:17:07;;;;;;;1.33;1.23;;;;;;;4.66;88.28;98813.84;5047108;28;20032;-69
2024/02/24 05:19:32;;;;;;;3.40;1.80;;;;;;;4.65;88.05;98809.56;5046858;28;20029;-69
2024/02/24 05:21:58;;;;;;;6.53;2.60;;;;;;;4.63;88.01;98813.88;5045425;28;20035;-69
2024/02/24 05:24:23;;;;;;;2.50;1.05;;;;;;;4.62;88.22;98812.16;5046699;28;20037;-68
2024/02/24 05:26:49;;;;;;;13.10;3.90;;;;;;;4.61;87.87;98818.16;5046843;28;20021;-69
2024/02/24 05:29:16;;;;;;;2.38;1.67;;;;;;;4.56;87.89;98818.22;5046650;28;20037;-68
2024/02/24 05:31:41;;;;;;;0.70;0.70;;;;;;;4.56;87.67;98825.94;5046597;28;20096;-70
2024/02/24 05:34:07;;;;;;;8.55;3.35;;;;;;;4.57;87.92;98819.03;5045076;28;20022;-69
2024/02/24 05:36:32;;;;;;;1.42;1.33;;;;;;;4.51;87.75;98826.81;5046838;28;20022;-68
2024/02/24 05:38:58;;;;;;;2.88;1.38;;;;;;;4.54;87.75;98839.63;5046451;28;20026;-67
2024/02/24 05:41:23;;;;;;;1.20;1.00;;;;;;;4.52;87.69;98828.53;5046687;28;20028;-68
2024/02/24 05:43:49;;;;;;;1.92;1.83;;;;;;;4.51;87.57;98834.53;5046440;28;20021;-68
2024/02/24 05:46:16;;;;;;;3.83;1.13;;;;;;;4.54;87.80;98837.06;5045050;28;20094;-68
2024/02/24 05:48:41;;;;;;;1.80;1.48;;;;;;;4.52;87.87;98825.97;5044935;28;20029;-68
2024/02/24 05:51:10;;;;;;;1.67;1.58;;;;;;;4.54;87.68;98830.22;5044857;28;20071;-69
2024/02/24 05:53:38;;;;;;;1.75;1.65;;;;;;;4.50;87.71;98828.56;5045843;28;20026;-68
2024/02/24 05:56:04;;;;;;;1.85;1.67;;;;;;;4.56;87.82;98832.78;5046108;28;20053;-69
2024/02/24 05:58:30;;;;;;;7.10;2.30;;;;;;;4.47;87.92;98839.69;5044894;28;20187;-68
2024/02/24 06:00:55;;;;;;;1.35;1.25;;;;;;;4.52;87.91;98836.25;5046299;28;20462;-68
2024/02/24 06:03:22;;;;;;;4.25;1.95;;;;;;;4.51;87.68;98837.09;5045903;28;20036;-68
2024/02/24 06:05:48;;;;;;;2.58;1.95;;;;;;;4.53;87.39;98848.22;5045919;28;20025;-68
2024/02/24 06:08:13;;;;;;;3.90;1.52;;;;;;;4.52;87.58;98841.41;5045742;28;20018;-69
2024/02/24 06:10:39;;;;;;;6.07;1.08;;;;;;;4.44;87.69;98837.16;5046016;28;20025;-69
2024/02/24 06:13:05;;;;;;;0.93;0.90;;;;;;;4.45;87.23;98841.44;5045436;28;20072;-69
2024/02/24 06:15:31;;;;;;;1.25;1.13;;;;;;;4.45;87.16;98841.44;5045809;28;20044;-69
2024/02/24 06:17:56;;;;;;;2.47;2.05;;;;;;;4.50;87.47;98850.81;5046052;28;20032;-69
2024/02/24 06:20:21;;;;;;;2.92;1.60;;;;;;;4.47;87.26;98838.88;5045933;28;20036;-68
2024/02/24 06:22:48;;;;;;;2.10;1.88;;;;;;;4.55;87.47;98854.22;5045531;28;20075;-68
2024/02/24 06:25:13;;;;;;;2.13;1.83;;;;;;;4.54;87.62;98850.78;5045523;28;20053;-68
2024/02/24 06:27:39;;;;;;;1.35;1.08;;;;;;;4.65;87.36;98862.69;5045619;28;20064;-68
2024/02/24 06:30:05;;;;;;;3.42;1.52;;;;;;;4.65;87.21;98863.53;5045529;28;20021;-69
2024/02/24 06:32:31;;;;;;;1.30;1.13;;;;;;;4.58;87.18;98867.03;5045560;28;20025;-68
2024/02/24 06:34:56;;;;;;;7.40;2.58;;;;;;;4.58;87.42;98865.31;5045249;28;20033;-68
2024/02/24 06:37:21;;;;;;;6.85;2.45;;;;;;;4.63;87.23;98867.00;5045579;28;20021;-68
2024/02/24 06:39:47;;;;;;;1.10;1.05;;;;;;;4.59;87.60;98861.88;5045320;28;20043;-68
2024/02/24 06:42:13;;;;;;;5.00;1.58;;;;;;;4.61;87.68;98869.59;5043954;28;20106;-68
2024/02/24 06:44:39;;;;;;;2.15;1.88;;;;;;;4.64;87.78;98877.25;5045129;28;20032;-69
2024/02/24 06:47:04;;;;;;;2.90;1.92;;;;;;;4.62;87.64;98873.00;5045332;28;20127;-68
2024/02/24 06:49:30;;;;;;;1.75;1.65;;;;;;;4.65;87.38;98873.81;5045228;28;20022;-68
2024/02/24 06:51:55;;;;;;;1.77;1.48;;;;;;;4.66;87.21;98877.25;5043714;28;20466;-69
2024/02/24 06:54:21;;;;;;;4.00;2.35;;;;;;;4.69;87.42;98884.94;5044731;28;20374;-67
2024/02/24 06:56:46;;;;;;;1.80;1.70;;;;;;;4.75;87.33;98881.44;5045221;28;20346;-68
2024/02/24 06:59:13;;;;;;;0.70;0.70;;;;;;;4.79;87.35;98885.72;5045057;28;20045;-68
2024/02/24 07:01:38;;;;;;;1.85;1.70;;;;;;;4.78;87.32;98887.41;5043645;28;20032;-68
2024/02/24 07:04:04;;;;;;;4.03;1.77;;;;;;;4.76;87.58;98881.44;5044922;28;20156;-69
2024/02/24 07:06:29;;;;;;;5.53;1.88;;;;;;;4.77;87.38;98892.56;5044765;28;20036;-68
2024/02/24 07:08:54;;;;;;;2.42;2.20;;;;;;;4.77;87.41;98882.28;5044774;28;20025;-68
2024/02/24 07:11:20;;;;;;;3.92;2.67;;;;;;;4.86;87.32;98892.50;5044987;28;20029;-69
2024/02/24 07:13:45;;;;;;;1.73;1.00;;;;;;;4.94;87.67;98890.69;5044847;28;20024;-68
2024/02/24 07:16:11;;;;;;;3.15;1.75;;;;;;;5.20;87.99;98897.31;5044942;28;20053;-69
2024/02/24 07:18:37;;;;;;;3.85;1.25;;;;;;;5.58;88.55;98902.00;5043580;28;20029;-69
2024/02/24 07:21:03;;;;;;;5.93;2.63;;;;;;;6.03;89.13;98895.41;5044876;28;20018;-68
2024/02/24 07:23:28;;;;;;;2.70;1.35;;;;;;;6.63;89.03;98905.75;5044005;28;20026;-69
2024/02/24 07:25:54;;;;;;;2.67;1.55;;;;;;;7.07;89.22;98898.09;5044900;28;20017;-69
2024/02/24 07:28:19;;;;;;;8.05;1.60;;;;;;;7.72;89.12;98893.38;5045025;28;20159;-70
2024/02/24 07:30:44;;;;;;;1.20;1.15;;;;;;;7.90;85.11;98894.72;5044769;28;20033;-69
2024/02/24 07:33:10;;;;;;;2.22;1.60;;;;;;;7.76;85.68;98892.44;5043729;28;20028;-69
2024/02/24 07:35:35;;;;;;;5.68;2.30;;;;;;;8.09;87.66;98908.97;5044781;28;20045;-69
2024/02/24 07:38:01;;;;;;;3.00;2.30;;;;;;;8.24;85.05;98897.44;5045003;28;20037;-69
2024/02/24 07:40:26;;;;;;;4.88;2.25;;;;;;;8.35;84.63;98892.88;5043295;28;20506;-67
2024/02/24 07:42:54;;;;;;;2.72;0.98;;;;;;;8.37;80.48;98898.84;5044871;28;20026;-67
2024/02/24 07:45:21;;;;;;;5.57;2.15;;;;;;;8.16;78.10;98903.63;5044744;28;20028;-68
2024/02/24 07:47:46;;;;;;;2.20;1.20;;;;;;;7.97;75.67;98904.94;5043302;28;20026;-67
2024/02/24 07:50:11;;;;;;;5.38;1.65;;;;;;;7.62;76.43;98915.13;5044781;28;20057;-71
2024/02/24 07:52:39;;;;;;;3.40;2.25;;;;;;;7.56;74.85;98929.00;5044707;28;20026;-71
2024/02/24 07:55:06;;;;;;;6.30;2.67;;;;;;;7.34;76.43;98921.69;5044149;28;20204;-70
2024/02/24 07:57:31;;;;;;;6.10;1.58;;;;;;;7.36;77.30;98917.34;5043411;28;20022;-70
2024/02/24 07:59:56;;;;;;;2.10;1.67;;;;;;;7.43;76.10;98926.66;5044535;28;20102;-71
2024/02/24 08:02:22;;;;;;;1.25;1.13;;;;;;;7.33;75.29;98922.56;5044834;28;20060;-71
2024/02/24 08:04:47;;;;;;;4.47;1.67;;;;;;;7.11;73.81;98933.28;5044598;28;20478;-71
2024/02/24 08:07:12;;;;;;;5.53;2.00;;;;;;;6.69;74.81;98928.84;5044671;28;20057;-70
2024/02/24 08:09:38;;;;;;;1.05;0.98;;;;;;;6.42;74.78;98934.41;5044537;28;20021;-72
2024/02/24 08:12:03;;;;;;;1.00;0.90;;;;;;;6.13;75.55;98922.81;5044783;28;20030;-70
2024/02/24 08:14:29;;;;;;;4.82;2.05;;;;;;;5.96;76.62;98922.97;5044606;28;20037;-67
2024/02/24 08:16:54;;;;;;;10.55;3.42;;;;;;;6.18;77.24;98941.63;5044784;28;20025;-67
2024/02/24 08:19:20;;;;;;;1.75;1.40;;;;;;;6.35;76.53;98926.78;5044323;28;20048;-66
2024/02/24 08:21:45;;;;;;;1.45;1.35;;;;;;;6.44;76.12;98926.63;5043001;28;20033;-67
2024/02/24 08:24:16;;;;;;;2.38;1.30;;;;;;;6.48;75.50;98930.03;5043536;28;20021;-66
2024/02/24 08:26:42;;;;;;;0.50;0.50;;;;;;;6.45;76.01;98931.75;5044441;28;20340;-67
2024/02/24 08:29:09;;;;;;;1.73;1.42;;;;;;;6.64;75.92;98938.38;5043158;28;20145;-67
2024/02/24 08:31:34;;;;;;;3.22;1.27;;;;;;;6.65;75.75;98937.50;5044348;28;20136;-67
2024/02/24 08:34:00;;;;;;;1.40;1.30;;;;;;;6.96;75.49;98943.88;5043080;28;20498;-68
2024/02/24 08:36:25;;;;;;;2.58;1.88;;;;;;;7.33;74.63;98948.41;5045962;28;20025;-67
2024/02/24 08:38:51;;;;;;;1.85;1.58;;;;;;;7.71;72.99;98945.94;5046579;28;20029;-66
2024/02/24 08:41:16;;;;;;;1.35;1.25;;;;;;;7.87;73.03;98941.31;5048089;28;20531;-68
2024/02/24 08:43:42;;;;;;;1.25;1.08;;;;;;;8.25;70.36;98940.50;5046340;28;20040;-68
2024/02/24 08:46:08;;;;;;;6.95;2.38;;;;;;;8.24;71.39;98949.16;5047769;28;20055;-68
2024/02/24 08:48:34;;;;;;;2.22;1.10;;;;;;;8.55;71.02;98945.88;5047944;28;20113;-68
2024/02/24 08:50:59;;;;;;;5.80;1.70;;;;;;;8.26;68.85;98952.56;5046429;28;20112;-67
2024/02/24 08:53:25;;;;;;;4.47;1.63;;;;;;;7.99;70.06;98957.41;5047667;28;20477;-67
2024/02/24 08:55:51;;;;;;;2.70;2.22;;;;;;;8.10;70.16;98952.03;5047458;28;20054;-67
2024/02/24 08:58:17;;;;;;;1.88;1.70;;;;;;;8.25;70.42;98945.66;5046422;28;20025;-66
2024/02/24 09:00:43;;;;;;;1.60;1.35;;;;;;;7.94;68.50;98952.34;5047472;28;20033;-66
2024/02/24 09:03:09;;;;;;;1.08;1.05;;;;;;;7.37;68.75;98960.34;5046207;28;20087;-66
2024/02/24 09:05:35;;;;;;;1.25;0.95;;;;;;;6.77;70.57;98957.09;5045799;28;20108;-68
2024/02/24 09:08:00;;;;;;;7.10;2.17;;;;;;;6.48;71.23;98967.00;5047547;28;20021;-66
2024/02/24 09:10:25;;;;;;;0.65;0.63;;;;;;;6.20;72.70;98965.66;5047066;28;20033;-66
2024/02/24 09:12:51;;;;;;;1.92;1.10;;;;;;;6.06;73.13;98964.97;5047488;28;20048;-66
2024/02/24 09:15:16;;;;;;;1.90;1.08;;;;;;;5.93;73.38;98969.41;5047023;28;20028;-66
2024/02/24 09:17:42;;;;;;;1.65;1.35;;;;;;;5.80;73.66;98964.41;5045825;28;20025;-66
2024/02/24 09:20:08;;;;;;;1.50;1.40;;;;;;;5.68;74.41;98972.28;5047161;28;20031;-68
2024/02/24 09:22:34;;;;;;;3.90;2.72;;;;;;;5.41;75.51;98976.84;5045958;28;20095;-68
2024/02/24 09:25:00;;;;;;;1.02;0.93;;;;;;;5.35;76.58;98982.94;5046923;28;20032;-67
2024/02/24 09:27:25;;;;;;;1.40;1.30;;;;;;;5.29;76.06;98970.09;5047081;28;20389;-67
2024/02/24 09:29:50;;;;;;;0.80;0.80;;;;;;;5.29;76.32;98972.69;5046870;28;20461;-67
2024/02/24 09:32:17;;;;;;;4.70;2.05;;;;;;;5.13;76.90;98977.97;5046961;28;20029;-67
2024/02/24 09:34:43;;;;;;;0.70;0.70;;;;;;;5.10;76.63;98961.75;5046998;28;20506;-67
2024/02/24 09:37:09;;;;;;;2.50;1.98;;;;;;;5.07;77.40;98967.75;5045451;28;20025;-67
2024/02/24 09:39:34;;;;;;;5.60;1.90;;;;;;;5.10;77.97;98975.44;5046692;28;20048;-67
2024/02/24 09:42:00;;;;;;;2.55;2.00;;;;;;;5.06;78.24;98974.59;5047038;28;20052;-66
2024/02/24 09:44:32;;;;;;;3.08;1.42;;;;;;;5.13;78.19;98983.13;5046639;28;20020;-67
2024/02/24 09:46:57;;;;;;;8.57;1.85;;;;;;;5.05;78.34;98987.47;5046174;28;20026;-66
2024/02/24 09:49:27;;;;;;;0.93;0.93;;;;;;;5.07;78.57;98988.31;5046904;28;20128;-66
2024/02/24 09:51:53;;;;;;;1.52;1.42;;;;;;;5.05;79.31;98990.03;5046618;28;20386;-66
2024/02/24 09:54:18;;;;;;;2.25;2.05;;;;;;;5.10;78.86;98987.47;5044772;28;20028;-67
2024/02/24 09:56:45;;;;;;;0.60;0.60;;;;;;;5.16;78.89;98990.81;5046539;28;20116;-67
2024/02/24 09:59:11;;;;;;;0.90;0.90;;;;;;;5.13;78.67;98990.84;5046485;28;20048;-68
2024/02/24 10:01:37;;;;;;;1.02;1.02;;;;;;;5.12;78.80;98998.56;5046520;28;20532;-67
2024/02/24 10:04:03;;;;;;;4.85;1.42;;;;;;;5.01;79.18;98996.97;5046247;28;20051;-67
2024/02/24 10:06:28;;;;;;;3.47;2.00;;;;;;;5.06;79.62;98994.34;5046186;28;20299;-67
2024/02/24 10:08:53;;;;;;;1.58;0.65;;;;;;;5.10;79.42;98987.47;5046155;28;20063;-67
2024/02/24 10:11:20;;;;;;;1.80;1.70;;;;;;;5.14;79.97;98987.41;5046318;28;20025;-67
2024/02/24 10:13:45;;;;;;;1.52;1.42;;;;;;;5.21;79.57;99001.91;5046124;28;20029;-66
2024/02/24 10:16:11;;;;;;;4.22;1.67;;;;;;;5.27;79.76;98995.03;5046155;28;20025;-67
2024/02/24 10:18:42;;;;;;;0.60;0.60;;;;;;;5.25;79.51;98977.03;5046222;28;20029;-66
2024/02/24 10:21:07;;;;;;;1.63;1.53;;;;;;;5.35;79.57;99005.22;5046007;28;20091;-67
2024/02/24 10:23:33;;;;;;;7.93;2.15;;;;;;;5.37;79.36;98996.63;5045804;28;20029;-65
2024/02/24 10:25:58;;;;;;;1.67;0.90;;;;;;;5.55;79.34;99002.44;5045908;28;20076;-66
2024/02/24 10:28:25;;;;;;;2.72;1.85;;;;;;;5.48;78.82;98998.25;5045849;28;20027;-66
2024/02/24 10:30:51;;;;;;;0.80;0.80;;;;;;;5.53;78.59;99004.19;5044328;28;20067;-66
2024/02/24 10:33:17;;;;;;;2.25;1.35;;;;;;;5.53;78.40;99006.75;5045784;28;20022;-67
2024/02/24 10:35:43;;;;;;;1.73;1.63;;;;;;;5.44;78.82;99000.84;5045742;28;20112;-67
2024/02/24 10:38:08;;;;;;;1.88;1.65;;;;;;;5.41;79.25;98994.88;5044463;28;20021;-67
2024/02/24 10:40:35;;;;;;;7.63;2.33;;;;;;;5.60;79.60;99003.25;5044131;28;20033;-67
2024/02/24 10:43:02;;;;;;;1.60;1.45;;;;;;;5.72;79.50;99001.44;5045458;28;20029;-67
2024/02/24 10:45:28;;;;;;;0.98;0.95;;;;;;;5.89;78.37;98996.06;5045444;28;20017;-67
2024/02/24 10:47:54;;;;;;;1.35;1.15;;;;;;;5.91;77.17;99007.22;5045480;28;20021;-67
2024/02/24 10:50:19;;;;;;;1.67;1.35;;;;;;;5.81;78.08;98991.84;5045459;28;20044;-67
2024/02/24 10:52:46;;;;;;;2.90;2.17;;;;;;;5.89;78.35;99002.09;5045489;28;20038;-67
2024/02/24 10:55:12;;;;;;;8.20;2.97;;;;;;;6.04;78.85;98997.59;5045109;28;20059;-68
2024/02/24 10:57:39;;;;;;;1.00;0.63;;;;;;;6.18;77.47;98993.16;5043485;28;20100;-67
2024/02/24 11:00:35;;;;;;;2.25;2.05;;;;;;;6.11;77.52;98988.09;5043809;28;20462;-67
2024/02/24 11:03:03;;;;;;;6.20;1.73;;;;;;;6.19;78.03;98989.72;5045357;28;20040;-66
2024/02/24 11:05:29;;;;;;;1.00;1.00;;;;;;;6.23;77.86;98984.53;5045208;28;20075;-66
2024/02/24 11:07:54;;;;;;;1.05;0.95;;;;;;;6.28;77.65;98987.88;5045414;28;20025;-67
2024/02/24 11:10:20;;;;;;;6.40;2.13;;;;;;;6.25;77.62;98980.19;5043576;28;20034;-68
2024/02/24 11:12:50;;;;;;;1.13;1.13;;;;;;;6.27;77.38;98978.44;5045442;28;20021;-67
2024/02/24 11:15:19;;;;;;;1.42;1.33;;;;;;;6.24;77.25;98988.78;5045018;28;20033;-66
2024/02/24 11:17:52;;;;;;;3.53;2.08;;;;;;;6.24;77.00;98988.78;5045355;28;20022;-67
2024/02/24 11:20:39;;;;;;;1.60;1.23;;;;;;;6.17;76.57;98988.88;5045027;28;20022;-67
2024/02/24 11:23:20;;;;;;;3.65;1.65;;;;;;;6.14;77.08;98988.91;5044999;28;20049;-67
2024/02/24 11:25:47;;;;;;;1.35;1.20;;;;;;;6.11;76.91;98983.81;5043536;28;20102;-66
2024/02/24 11:28:22;;;;;;;5.75;2.22;;;;;;;6.11;77.01;98981.22;5045148;28;20428;-67
2024/02/24 11:30:53;;;;;;;3.70;2.13;;;;;;;6.23;76.77;98980.19;5044899;28;20124;-66
2024/02/24 11:33:22;;;;;;;1.67;1.25;;;;;;;6.23;76.55;98985.34;5045178;28;20017;-67
2024/02/24 11:35:49;;;;;;;1.23;1.13;;;;;;;6.17;76.74;98977.72;5043581;28;20056;-67